Terminal Aerodrome Forecast
Issued by NWS

Home | Current Version | Previous Version | Text Only | Print | Product List | Glossary On
Versions: 1 2 3 4 5 6 7 8 9 10 11 12 13 14 15 16 17
000
FTUS43 KGLD 162143 AAA
TAFMCK
TAF AMD
KMCK 162143Z 1622/1718 18011KT P6SM SKC
     FM170500 19006KT P6SM SCT250 WS010/22035KT
     FM170900 23006KT P6SM SCT250=

USA.gov is the U.S. government's official web portal to all federal, state and local government web resources and services.